sensor_id;sensor_type;location;lat;lon;timestamp;temperature;humidity
20045;DHT22;10183;47.808;9.476;2022-12-05T00:00:17;0.70;99.90
20045;DHT22;10183;47.808;9.476;2022-12-05T00:02:43;0.70;99.90
20045;DHT22;10183;47.808;9.476;2022-12-05T00:05:10;0.70;99.90
20045;DHT22;10183;47.808;9.476;2022-12-05T00:07:37;0.70;99.90
20045;DHT22;10183;47.808;9.476;2022-12-05T00:10:04;0.70;99.90
20045;DHT22;10183;47.808;9.476;2022-12-05T00:12:30;0.70;99.90
20045;DHT22;10183;47.808;9.476;2022-12-05T00:14:56;0.70;99.90
20045;DHT22;10183;47.808;9.476;2022-12-05T00:17:21;0.80;99.90
20045;DHT22;10183;47.808;9.476;2022-12-05T00:19:47;0.80;99.90
20045;DHT22;10183;47.808;9.476;2022-12-05T00:22:13;0.80;99.90
20045;DHT22;10183;47.808;9.476;2022-12-05T00:24:39;0.80;99.90
20045;DHT22;10183;47.808;9.476;2022-12-05T00:27:04;0.80;99.90
20045;DHT22;10183;47.808;9.476;2022-12-05T00:29:30;0.80;99.90
20045;DHT22;10183;47.808;9.476;2022-12-05T00:31:56;0.80;99.90
20045;DHT22;10183;47.808;9.476;2022-12-05T00:34:22;0.80;99.90
20045;DHT22;10183;47.808;9.476;2022-12-05T00:36:47;0.90;99.90
20045;DHT22;10183;47.808;9.476;2022-12-05T00:39:13;0.90;99.90
20045;DHT22;10183;47.808;9.476;2022-12-05T00:41:40;0.90;99.90
20045;DHT22;10183;47.808;9.476;2022-12-05T00:44:06;0.90;99.90
20045;DHT22;10183;47.808;9.476;2022-12-05T00:46:33;0.90;99.90
20045;DHT22;10183;47.808;9.476;2022-12-05T00:49:00;0.90;99.90
20045;DHT22;10183;47.808;9.476;2022-12-05T00:51:33;0.90;99.90
20045;DHT22;10183;47.808;9.476;2022-12-05T00:54:02;0.90;99.90
20045;DHT22;10183;47.808;9.476;2022-12-05T00:56:30;0.80;99.90
20045;DHT22;10183;47.808;9.476;2022-12-05T00:58:56;0.90;99.90
20045;DHT22;10183;47.808;9.476;2022-12-05T01:01:26;0.90;99.90
20045;DHT22;10183;47.808;9.476;2022-12-05T01:03:54;0.90;99.90
20045;DHT22;10183;47.808;9.476;2022-12-05T01:06:21;0.90;99.90
20045;DHT22;10183;47.808;9.476;2022-12-05T01:08:47;1.00;99.90
20045;DHT22;10183;47.808;9.476;2022-12-05T01:11:17;1.00;99.90
20045;DHT22;10183;47.808;9.476;2022-12-05T01:13:44;1.00;99.90
20045;DHT22;10183;47.808;9.476;2022-12-05T01:16:18;1.00;99.90
20045;DHT22;10183;47.808;9.476;2022-12-05T01:18:44;1.00;99.90
20045;DHT22;10183;47.808;9.476;2022-12-05T01:21:10;1.00;99.90
20045;DHT22;10183;47.808;9.476;2022-12-05T01:23:36;1.00;99.90
20045;DHT22;10183;47.808;9.476;2022-12-05T01:26:09;1.00;99.90
20045;DHT22;10183;47.808;9.476;2022-12-05T01:28:35;1.00;99.90
20045;DHT22;10183;47.808;9.476;2022-12-05T01:31:06;1.00;99.90
20045;DHT22;10183;47.808;9.476;2022-12-05T01:33:33;1.10;99.90
20045;DHT22;10183;47.808;9.476;2022-12-05T01:36:00;1.10;99.90
20045;DHT22;10183;47.808;9.476;2022-12-05T01:38:25;1.10;99.90
20045;DHT22;10183;47.808;9.476;2022-12-05T01:41:02;1.10;99.90
20045;DHT22;10183;47.808;9.476;2022-12-05T01:43:28;1.10;99.90
20045;DHT22;10183;47.808;9.476;2022-12-05T01:45:54;1.10;99.90
20045;DHT22;10183;47.808;9.476;2022-12-05T01:48:29;1.10;99.90
20045;DHT22;10183;47.808;9.476;2022-12-05T01:50:58;1.10;99.90
20045;DHT22;10183;47.808;9.476;2022-12-05T01:53:25;1.10;99.90
20045;DHT22;10183;47.808;9.476;2022-12-05T01:55:52;1.10;99.90
20045;DHT22;10183;47.808;9.476;2022-12-05T01:58:18;1.10;99.90
20045;DHT22;10183;47.808;9.476;2022-12-05T02:00:44;1.10;99.90
20045;DHT22;10183;47.808;9.476;2022-12-05T02:03:18;1.10;99.90
20045;DHT22;10183;47.808;9.476;2022-12-05T02:05:47;1.20;99.90
20045;DHT22;10183;47.808;9.476;2022-12-05T02:08:15;1.20;99.90
20045;DHT22;10183;47.808;9.476;2022-12-05T02:10:46;1.20;99.90
20045;DHT22;10183;47.808;9.476;2022-12-05T02:13:50;1.30;99.90
20045;DHT22;10183;47.808;9.476;2022-12-05T02:21:44;1.30;99.90
20045;DHT22;10183;47.808;9.476;2022-12-05T02:27:03;1.30;99.90
20045;DHT22;10183;47.808;9.476;2022-12-05T02:43:32;1.40;99.90
20045;DHT22;10183;47.808;9.476;2022-12-05T02:46:01;1.30;99.90
20045;DHT22;10183;47.808;9.476;2022-12-05T02:48:28;1.30;99.90
20045;DHT22;10183;47.808;9.476;2022-12-05T02:50:57;1.40;99.90
20045;DHT22;10183;47.808;9.476;2022-12-05T02:53:25;1.40;99.90
20045;DHT22;10183;47.808;9.476;2022-12-05T02:55:52;1.40;99.90
20045;DHT22;10183;47.808;9.476;2022-12-05T02:58:22;1.50;99.90
20045;DHT22;10183;47.808;9.476;2022-12-05T03:00:49;1.50;99.90
20045;DHT22;10183;47.808;9.476;2022-12-05T03:03:20;1.50;99.90
20045;DHT22;10183;47.808;9.476;2022-12-05T03:05:50;1.60;99.90
20045;DHT22;10183;47.808;9.476;2022-12-05T03:08:22;1.50;99.90
20045;DHT22;10183;47.808;9.476;2022-12-05T03:10:50;1.60;99.90
20045;DHT22;10183;47.808;9.476;2022-12-05T03:13:31;1.60;99.90
20045;DHT22;10183;47.808;9.476;2022-12-05T03:16:02;1.60;99.90
20045;DHT22;10183;47.808;9.476;2022-12-05T03:18:38;1.60;99.90
20045;DHT22;10183;47.808;9.476;2022-12-05T03:21:57;1.60;99.90
20045;DHT22;10183;47.808;9.476;2022-12-05T03:24:08;1.60;99.90
20045;DHT22;10183;47.808;9.476;2022-12-05T03:35:02;1.70;99.90
20045;DHT22;10183;47.808;9.476;2022-12-05T03:37:40;1.80;99.90
20045;DHT22;10183;47.808;9.476;2022-12-05T03:45:59;1.80;99.90
20045;DHT22;10183;47.808;9.476;2022-12-05T03:48:52;1.80;99.90
20045;DHT22;10183;47.808;9.476;2022-12-05T03:51:23;1.80;99.90
20045;DHT22;10183;47.808;9.476;2022-12-05T03:53:55;1.80;99.90
20045;DHT22;10183;47.808;9.476;2022-12-05T03:56:29;1.80;99.90
20045;DHT22;10183;47.808;9.476;2022-12-05T03:59:06;1.80;99.90
20045;DHT22;10183;47.808;9.476;2022-12-05T04:01:35;1.70;99.90
20045;DHT22;10183;47.808;9.476;2022-12-05T04:04:09;1.70;99.90
20045;DHT22;10183;47.808;9.476;2022-12-05T04:06:38;1.70;99.90
20045;DHT22;10183;47.808;9.476;2022-12-05T04:09:16;1.70;99.90
20045;DHT22;10183;47.808;9.476;2022-12-05T04:11:47;1.70;99.90
20045;DHT22;10183;47.808;9.476;2022-12-05T04:14:19;1.70;99.90
20045;DHT22;10183;47.808;9.476;2022-12-05T04:16:55;1.70;99.90
20045;DHT22;10183;47.808;9.476;2022-12-05T04:19:40;1.70;99.90
20045;DHT22;10183;47.808;9.476;2022-12-05T04:22:25;1.70;99.90
20045;DHT22;10183;47.808;9.476;2022-12-05T04:24:53;1.70;99.90
20045;DHT22;10183;47.808;9.476;2022-12-05T04:30:12;1.80;99.90
20045;DHT22;10183;47.808;9.476;2022-12-05T04:35:35;1.70;99.90
20045;DHT22;10183;47.808;9.476;2022-12-05T04:38:16;1.70;99.90
20045;DHT22;10183;47.808;9.476;2022-12-05T04:41:13;1.70;99.90
20045;DHT22;10183;47.808;9.476;2022-12-05T04:43:43;1.70;99.90
20045;DHT22;10183;47.808;9.476;2022-12-05T04:46:11;1.60;99.90
20045;DHT22;10183;47.808;9.476;2022-12-05T04:48:39;1.50;99.90
20045;DHT22;10183;47.808;9.476;2022-12-05T04:51:08;1.60;99.90
20045;DHT22;10183;47.808;9.476;2022-12-05T04:53:37;1.60;99.90
20045;DHT22;10183;47.808;9.476;2022-12-05T04:56:04;1.70;99.90
20045;DHT22;10183;47.808;9.476;2022-12-05T04:58:31;1.70;99.90
20045;DHT22;10183;47.808;9.476;2022-12-05T05:01:33;1.80;99.90
20045;DHT22;10183;47.808;9.476;2022-12-05T05:04:07;1.80;99.90
20045;DHT22;10183;47.808;9.476;2022-12-05T05:06:36;1.80;99.90
20045;DHT22;10183;47.808;9.476;2022-12-05T05:09:02;1.80;99.90
20045;DHT22;10183;47.808;9.476;2022-12-05T05:11:31;1.90;99.90
20045;DHT22;10183;47.808;9.476;2022-12-05T05:13:57;1.90;99.90
20045;DHT22;10183;47.808;9.476;2022-12-05T05:16:31;1.90;99.90
20045;DHT22;10183;47.808;9.476;2022-12-05T05:18:57;1.90;99.90
20045;DHT22;10183;47.808;9.476;2022-12-05T05:21:32;1.90;99.90
20045;DHT22;10183;47.808;9.476;2022-12-05T05:23:59;1.80;99.90
20045;DHT22;10183;47.808;9.476;2022-12-05T05:26:26;1.80;99.90
20045;DHT22;10183;47.808;9.476;2022-12-05T05:28:53;1.80;99.90
20045;DHT22;10183;47.808;9.476;2022-12-05T05:31:19;1.80;99.90
20045;DHT22;10183;47.808;9.476;2022-12-05T05:33:52;1.80;99.90
20045;DHT22;10183;47.808;9.476;2022-12-05T05:36:19;1.80;99.90
20045;DHT22;10183;47.808;9.476;2022-12-05T05:38:47;1.70;99.90
20045;DHT22;10183;47.808;9.476;2022-12-05T05:41:24;1.70;99.90
20045;DHT22;10183;47.808;9.476;2022-12-05T05:43:51;1.80;99.90
20045;DHT22;10183;47.808;9.476;2022-12-05T05:46:20;1.70;99.90
20045;DHT22;10183;47.808;9.476;2022-12-05T05:48:46;1.70;99.90
20045;DHT22;10183;47.808;9.476;2022-12-05T05:51:13;1.80;99.90
20045;DHT22;10183;47.808;9.476;2022-12-05T05:53:39;1.80;99.90
20045;DHT22;10183;47.808;9.476;2022-12-05T05:56:07;1.80;99.90
20045;DHT22;10183;47.808;9.476;2022-12-05T05:58:33;1.70;99.90
20045;DHT22;10183;47.808;9.476;2022-12-05T06:01:25;1.80;99.90
20045;DHT22;10183;47.808;9.476;2022-12-05T06:03:51;1.80;99.90
20045;DHT22;10183;47.808;9.476;2022-12-05T06:06:18;1.70;99.90
20045;DHT22;10183;47.808;9.476;2022-12-05T06:08:44;1.70;99.90
20045;DHT22;10183;47.808;9.476;2022-12-05T06:11:16;1.70;99.90
20045;DHT22;10183;47.808;9.476;2022-12-05T06:13:42;1.80;99.90
20045;DHT22;10183;47.808;9.476;2022-12-05T06:16:10;1.70;99.90
20045;DHT22;10183;47.808;9.476;2022-12-05T06:18:36;1.70;99.90
20045;DHT22;10183;47.808;9.476;2022-12-05T06:21:02;1.80;99.90
20045;DHT22;10183;47.808;9.476;2022-12-05T06:23:28;1.90;99.90
20045;DHT22;10183;47.808;9.476;2022-12-05T06:25:55;1.90;99.90
20045;DHT22;10183;47.808;9.476;2022-12-05T06:28:23;2.00;99.90
20045;DHT22;10183;47.808;9.476;2022-12-05T06:30:49;2.00;99.90
20045;DHT22;10183;47.808;9.476;2022-12-05T06:33:15;2.10;99.90
20045;DHT22;10183;47.808;9.476;2022-12-05T06:35:41;2.10;99.90
20045;DHT22;10183;47.808;9.476;2022-12-05T06:38:08;2.20;99.90
20045;DHT22;10183;47.808;9.476;2022-12-05T06:40:34;2.10;99.90
20045;DHT22;10183;47.808;9.476;2022-12-05T06:42:59;2.10;99.90
20045;DHT22;10183;47.808;9.476;2022-12-05T06:45:25;2.20;99.90
20045;DHT22;10183;47.808;9.476;2022-12-05T06:47:51;2.20;99.90
20045;DHT22;10183;47.808;9.476;2022-12-05T06:50:17;2.20;99.90
20045;DHT22;10183;47.808;9.476;2022-12-05T06:52:43;2.30;99.90
20045;DHT22;10183;47.808;9.476;2022-12-05T06:55:09;2.30;99.90
20045;DHT22;10183;47.808;9.476;2022-12-05T06:57:35;2.40;99.90
20045;DHT22;10183;47.808;9.476;2022-12-05T07:00:01;2.40;99.90
20045;DHT22;10183;47.808;9.476;2022-12-05T07:02:44;2.30;99.90
20045;DHT22;10183;47.808;9.476;2022-12-05T07:05:10;2.30;99.90
20045;DHT22;10183;47.808;9.476;2022-12-05T07:07:36;2.40;99.90
20045;DHT22;10183;47.808;9.476;2022-12-05T07:10:03;2.40;99.90
20045;DHT22;10183;47.808;9.476;2022-12-05T07:12:28;2.40;99.90
20045;DHT22;10183;47.808;9.476;2022-12-05T07:14:56;2.40;99.90
20045;DHT22;10183;47.808;9.476;2022-12-05T07:17:22;2.50;99.90
20045;DHT22;10183;47.808;9.476;2022-12-05T07:19:48;2.40;99.90
20045;DHT22;10183;47.808;9.476;2022-12-05T07:22:15;2.50;99.90
20045;DHT22;10183;47.808;9.476;2022-12-05T07:24:40;2.50;99.90
20045;DHT22;10183;47.808;9.476;2022-12-05T07:27:06;2.50;99.90
20045;DHT22;10183;47.808;9.476;2022-12-05T07:29:32;2.50;99.90
20045;DHT22;10183;47.808;9.476;2022-12-05T07:31:57;2.60;99.90
20045;DHT22;10183;47.808;9.476;2022-12-05T07:34:23;2.60;99.90
20045;DHT22;10183;47.808;9.476;2022-12-05T07:36:48;2.70;99.90
20045;DHT22;10183;47.808;9.476;2022-12-05T07:39:14;2.70;99.90
20045;DHT22;10183;47.808;9.476;2022-12-05T07:41:40;2.70;99.90
20045;DHT22;10183;47.808;9.476;2022-12-05T07:44:08;2.80;99.90
20045;DHT22;10183;47.808;9.476;2022-12-05T07:46:34;2.90;99.90
20045;DHT22;10183;47.808;9.476;2022-12-05T07:49:00;2.90;99.90
20045;DHT22;10183;47.808;9.476;2022-12-05T07:51:26;3.00;99.90
20045;DHT22;10183;47.808;9.476;2022-12-05T07:53:51;2.90;99.90
20045;DHT22;10183;47.808;9.476;2022-12-05T07:56:17;2.90;99.90
20045;DHT22;10183;47.808;9.476;2022-12-05T07:58:44;2.90;99.90
20045;DHT22;10183;47.808;9.476;2022-12-05T08:01:13;2.70;99.90
20045;DHT22;10183;47.808;9.476;2022-12-05T08:03:40;2.70;99.90
20045;DHT22;10183;47.808;9.476;2022-12-05T08:06:17;2.70;99.90
20045;DHT22;10183;47.808;9.476;2022-12-05T08:08:43;2.70;99.90
20045;DHT22;10183;47.808;9.476;2022-12-05T08:11:15;2.70;99.90
20045;DHT22;10183;47.808;9.476;2022-12-05T08:13:42;2.70;99.90
20045;DHT22;10183;47.808;9.476;2022-12-05T08:16:10;2.70;99.90
20045;DHT22;10183;47.808;9.476;2022-12-05T08:18:37;2.70;99.90
20045;DHT22;10183;47.808;9.476;2022-12-05T08:21:13;2.70;99.90
20045;DHT22;10183;47.808;9.476;2022-12-05T08:23:40;2.70;99.90
20045;DHT22;10183;47.808;9.476;2022-12-05T08:26:09;2.70;99.90
20045;DHT22;10183;47.808;9.476;2022-12-05T08:28:35;2.70;99.90
20045;DHT22;10183;47.808;9.476;2022-12-05T08:31:13;2.60;99.90
20045;DHT22;10183;47.808;9.476;2022-12-05T08:33:39;2.70;99.90
20045;DHT22;10183;47.808;9.476;2022-12-05T08:36:08;2.70;99.90
20045;DHT22;10183;47.808;9.476;2022-12-05T08:38:34;2.60;99.90
20045;DHT22;10183;47.808;9.476;2022-12-05T08:41:05;2.50;99.90
20045;DHT22;10183;47.808;9.476;2022-12-05T08:43:31;2.50;99.90
20045;DHT22;10183;47.808;9.476;2022-12-05T08:45:58;2.50;99.90
20045;DHT22;10183;47.808;9.476;2022-12-05T08:48:24;2.50;99.90
20045;DHT22;10183;47.808;9.476;2022-12-05T08:50:50;2.60;99.90
20045;DHT22;10183;47.808;9.476;2022-12-05T08:53:16;2.70;99.90
20045;DHT22;10183;47.808;9.476;2022-12-05T08:55:41;2.70;99.90
20045;DHT22;10183;47.808;9.476;2022-12-05T08:58:07;2.70;99.90
20045;DHT22;10183;47.808;9.476;2022-12-05T09:00:33;2.80;99.90
20045;DHT22;10183;47.808;9.476;2022-12-05T09:02:59;2.80;99.90
20045;DHT22;10183;47.808;9.476;2022-12-05T09:05:25;2.80;99.90
20045;DHT22;10183;47.808;9.476;2022-12-05T09:07:51;2.90;99.90
20045;DHT22;10183;47.808;9.476;2022-12-05T09:10:17;2.80;99.90
20045;DHT22;10183;47.808;9.476;2022-12-05T09:12:43;2.80;99.90
20045;DHT22;10183;47.808;9.476;2022-12-05T09:15:11;2.80;99.90
20045;DHT22;10183;47.808;9.476;2022-12-05T09:17:37;2.90;99.90
20045;DHT22;10183;47.808;9.476;2022-12-05T09:20:04;3.00;99.90
20045;DHT22;10183;47.808;9.476;2022-12-05T09:22:30;3.10;99.90
20045;DHT22;10183;47.808;9.476;2022-12-05T09:24:56;3.20;99.90
20045;DHT22;10183;47.808;9.476;2022-12-05T09:27:22;3.20;99.90
20045;DHT22;10183;47.808;9.476;2022-12-05T09:29:47;3.20;99.90
20045;DHT22;10183;47.808;9.476;2022-12-05T09:32:13;3.20;99.90
20045;DHT22;10183;47.808;9.476;2022-12-05T09:34:39;3.20;99.90
20045;DHT22;10183;47.808;9.476;2022-12-05T09:37:05;3.30;99.90
20045;DHT22;10183;47.808;9.476;2022-12-05T09:39:32;3.20;99.90
20045;DHT22;10183;47.808;9.476;2022-12-05T09:42:19;3.30;99.90
20045;DHT22;10183;47.808;9.476;2022-12-05T09:50:05;3.20;99.90
20045;DHT22;10183;47.808;9.476;2022-12-05T09:55:14;3.30;99.90
20045;DHT22;10183;47.808;9.476;2022-12-05T09:58:04;3.30;99.90
20045;DHT22;10183;47.808;9.476;2022-12-05T10:00:29;3.40;99.90
20045;DHT22;10183;47.808;9.476;2022-12-05T10:03:40;3.40;99.90
20045;DHT22;10183;47.808;9.476;2022-12-05T10:06:14;3.50;99.90
20045;DHT22;10183;47.808;9.476;2022-12-05T10:09:22;3.50;99.90
20045;DHT22;10183;47.808;9.476;2022-12-05T10:17:23;3.50;99.90
20045;DHT22;10183;47.808;9.476;2022-12-05T10:19:51;3.50;99.90
20045;DHT22;10183;47.808;9.476;2022-12-05T10:22:27;3.40;99.90
20045;DHT22;10183;47.808;9.476;2022-12-05T10:24:58;3.40;99.90
20045;DHT22;10183;47.808;9.476;2022-12-05T10:27:41;3.50;99.90
20045;DHT22;10183;47.808;9.476;2022-12-05T10:30:15;3.50;99.90
20045;DHT22;10183;47.808;9.476;2022-12-05T10:32:58;3.40;99.90
20045;DHT22;10183;47.808;9.476;2022-12-05T10:35:27;3.50;99.90
20045;DHT22;10183;47.808;9.476;2022-12-05T10:37:58;3.40;99.90
20045;DHT22;10183;47.808;9.476;2022-12-05T10:40:28;3.60;99.90
20045;DHT22;10183;47.808;9.476;2022-12-05T10:42:57;3.70;99.90
20045;DHT22;10183;47.808;9.476;2022-12-05T10:45:23;3.70;99.90
20045;DHT22;10183;47.808;9.476;2022-12-05T10:47:54;3.70;99.90
20045;DHT22;10183;47.808;9.476;2022-12-05T10:52:56;3.70;99.90
20045;DHT22;10183;47.808;9.476;2022-12-05T10:55:23;3.60;99.90
20045;DHT22;10183;47.808;9.476;2022-12-05T10:58:06;3.70;99.90
20045;DHT22;10183;47.808;9.476;2022-12-05T11:00:33;3.70;99.90
20045;DHT22;10183;47.808;9.476;2022-12-05T11:03:02;3.80;99.90
20045;DHT22;10183;47.808;9.476;2022-12-05T11:05:30;3.80;99.90
20045;DHT22;10183;47.808;9.476;2022-12-05T11:08:04;3.80;99.90
20045;DHT22;10183;47.808;9.476;2022-12-05T11:10:34;3.60;99.90
20045;DHT22;10183;47.808;9.476;2022-12-05T11:13:21;3.60;99.90
20045;DHT22;10183;47.808;9.476;2022-12-05T11:15:48;3.70;99.90
20045;DHT22;10183;47.808;9.476;2022-12-05T11:18:28;3.70;99.90
20045;DHT22;10183;47.808;9.476;2022-12-05T11:20:56;3.70;99.90
20045;DHT22;10183;47.808;9.476;2022-12-05T11:23:32;3.80;99.90
20045;DHT22;10183;47.808;9.476;2022-12-05T11:25:59;3.80;99.90
20045;DHT22;10183;47.808;9.476;2022-12-05T11:28:32;4.00;99.90
20045;DHT22;10183;47.808;9.476;2022-12-05T11:33:40;4.00;99.90
20045;DHT22;10183;47.808;9.476;2022-12-05T11:38:38;4.10;99.90
20045;DHT22;10183;47.808;9.476;2022-12-05T11:44:32;4.30;99.90
20045;DHT22;10183;47.808;9.476;2022-12-05T11:55:27;4.30;99.90
20045;DHT22;10183;47.808;9.476;2022-12-05T11:58:18;4.20;99.90
20045;DHT22;10183;47.808;9.476;2022-12-05T12:03:42;3.70;99.90
20045;DHT22;10183;47.808;9.476;2022-12-05T12:11:44;3.90;99.90
20045;DHT22;10183;47.808;9.476;2022-12-05T12:36:44;3.70;99.90
20045;DHT22;10183;47.808;9.476;2022-12-05T12:50:44;3.60;99.90
20045;DHT22;10183;47.808;9.476;2022-12-05T12:58:57;3.50;99.90
20045;DHT22;10183;47.808;9.476;2022-12-05T13:01:32;3.60;99.90
20045;DHT22;10183;47.808;9.476;2022-12-05T13:04:16;3.90;99.90
20045;DHT22;10183;47.808;9.476;2022-12-05T13:06:59;4.20;99.90
20045;DHT22;10183;47.808;9.476;2022-12-05T13:09:47;4.30;99.90
20045;DHT22;10183;47.808;9.476;2022-12-05T13:12:22;4.20;99.90
20045;DHT22;10183;47.808;9.476;2022-12-05T13:15:10;3.90;99.90
20045;DHT22;10183;47.808;9.476;2022-12-05T13:17:41;3.70;99.90
20045;DHT22;10183;47.808;9.476;2022-12-05T13:20:22;3.50;99.90
20045;DHT22;10183;47.808;9.476;2022-12-05T13:22:50;3.50;99.90
20045;DHT22;10183;47.808;9.476;2022-12-05T13:25:20;3.60;99.90
20045;DHT22;10183;47.808;9.476;2022-12-05T13:27:56;3.60;99.90
20045;DHT22;10183;47.808;9.476;2022-12-05T13:30:24;3.60;99.90
20045;DHT22;10183;47.808;9.476;2022-12-05T13:32:57;3.60;99.90
20045;DHT22;10183;47.808;9.476;2022-12-05T13:35:33;3.60;99.90
20045;DHT22;10183;47.808;9.476;2022-12-05T13:38:29;3.70;99.90
20045;DHT22;10183;47.808;9.476;2022-12-05T13:41:40;3.60;99.90
20045;DHT22;10183;47.808;9.476;2022-12-05T13:44:34;3.70;99.90
20045;DHT22;10183;47.808;9.476;2022-12-05T13:47:02;3.70;99.90
20045;DHT22;10183;47.808;9.476;2022-12-05T13:49:36;3.80;99.90
20045;DHT22;10183;47.808;9.476;2022-12-05T13:52:14;3.70;99.90
20045;DHT22;10183;47.808;9.476;2022-12-05T13:54:44;3.70;99.90
20045;DHT22;10183;47.808;9.476;2022-12-05T14:00:24;3.40;99.90
20045;DHT22;10183;47.808;9.476;2022-12-05T14:02:53;3.40;99.90
20045;DHT22;10183;47.808;9.476;2022-12-05T14:07:55;3.30;99.90
20045;DHT22;10183;47.808;9.476;2022-12-05T14:10:23;3.30;99.90
20045;DHT22;10183;47.808;9.476;2022-12-05T14:15:42;3.30;99.90
20045;DHT22;10183;47.808;9.476;2022-12-05T14:18:23;3.40;99.90
20045;DHT22;10183;47.808;9.476;2022-12-05T14:23:39;3.40;99.90
20045;DHT22;10183;47.808;9.476;2022-12-05T14:29:21;3.40;99.90
20045;DHT22;10183;47.808;9.476;2022-12-05T14:34:37;3.50;99.90
20045;DHT22;10183;47.808;9.476;2022-12-05T14:44:59;3.40;99.90
20045;DHT22;10183;47.808;9.476;2022-12-05T14:47:31;3.40;99.90
20045;DHT22;10183;47.808;9.476;2022-12-05T15:06:58;3.20;99.90
20045;DHT22;10183;47.808;9.476;2022-12-05T15:09:37;3.10;99.90
20045;DHT22;10183;47.808;9.476;2022-12-05T15:12:18;3.10;99.90
20045;DHT22;10183;47.808;9.476;2022-12-05T15:15:03;3.10;99.90
20045;DHT22;10183;47.808;9.476;2022-12-05T15:17:37;3.10;99.90
20045;DHT22;10183;47.808;9.476;2022-12-05T15:20:11;3.20;99.90
20045;DHT22;10183;47.808;9.476;2022-12-05T15:22:40;3.20;99.90
20045;DHT22;10183;47.808;9.476;2022-12-05T15:28:03;3.20;99.90
20045;DHT22;10183;47.808;9.476;2022-12-05T15:30:30;3.10;99.90
20045;DHT22;10183;47.808;9.476;2022-12-05T15:32:57;3.10;99.90
20045;DHT22;10183;47.808;9.476;2022-12-05T15:35:26;3.10;99.90
20045;DHT22;10183;47.808;9.476;2022-12-05T15:38:01;3.00;99.90
20045;DHT22;10183;47.808;9.476;2022-12-05T15:40:33;3.00;99.90
20045;DHT22;10183;47.808;9.476;2022-12-05T15:43:27;2.90;99.90
20045;DHT22;10183;47.808;9.476;2022-12-05T15:46:07;2.80;99.90
20045;DHT22;10183;47.808;9.476;2022-12-05T15:48:34;2.60;99.90
20045;DHT22;10183;47.808;9.476;2022-12-05T15:51:00;2.50;99.90
20045;DHT22;10183;47.808;9.476;2022-12-05T15:53:56;2.40;99.90
20045;DHT22;10183;47.808;9.476;2022-12-05T15:56:32;2.30;99.90
20045;DHT22;10183;47.808;9.476;2022-12-05T16:02:14;2.10;99.90
20045;DHT22;10183;47.808;9.476;2022-12-05T16:04:53;2.10;99.90
20045;DHT22;10183;47.808;9.476;2022-12-05T16:07:22;2.10;99.90
20045;DHT22;10183;47.808;9.476;2022-12-05T16:09:54;2.10;99.90
20045;DHT22;10183;47.808;9.476;2022-12-05T16:12:36;2.10;99.90
20045;DHT22;10183;47.808;9.476;2022-12-05T16:15:24;2.10;99.90
20045;DHT22;10183;47.808;9.476;2022-12-05T16:17:53;2.00;99.90
20045;DHT22;10183;47.808;9.476;2022-12-05T16:20:34;1.90;99.90
20045;DHT22;10183;47.808;9.476;2022-12-05T16:23:20;1.90;99.90
20045;DHT22;10183;47.808;9.476;2022-12-05T16:25:47;1.90;99.90
20045;DHT22;10183;47.808;9.476;2022-12-05T16:28:19;1.90;99.90
20045;DHT22;10183;47.808;9.476;2022-12-05T16:31:00;1.90;99.90
20045;DHT22;10183;47.808;9.476;2022-12-05T16:33:28;1.80;99.90
20045;DHT22;10183;47.808;9.476;2022-12-05T16:35:55;1.80;99.90
20045;DHT22;10183;47.808;9.476;2022-12-05T16:38:31;1.80;99.90
20045;DHT22;10183;47.808;9.476;2022-12-05T16:41:03;1.70;99.90
20045;DHT22;10183;47.808;9.476;2022-12-05T16:48:26;1.70;99.90
20045;DHT22;10183;47.808;9.476;2022-12-05T16:51:26;1.60;99.90
20045;DHT22;10183;47.808;9.476;2022-12-05T16:54:04;1.60;99.90
20045;DHT22;10183;47.808;9.476;2022-12-05T16:56:31;1.60;99.90
20045;DHT22;10183;47.808;9.476;2022-12-05T16:59:02;1.60;99.90
20045;DHT22;10183;47.808;9.476;2022-12-05T17:01:29;1.70;99.90
20045;DHT22;10183;47.808;9.476;2022-12-05T17:03:56;1.70;99.90
20045;DHT22;10183;47.808;9.476;2022-12-05T17:06:23;1.70;99.90
20045;DHT22;10183;47.808;9.476;2022-12-05T17:08:53;1.60;99.90
20045;DHT22;10183;47.808;9.476;2022-12-05T17:11:25;1.60;99.90
20045;DHT22;10183;47.808;9.476;2022-12-05T17:13:53;1.70;99.90
20045;DHT22;10183;47.808;9.476;2022-12-05T17:16:20;1.70;99.90
20045;DHT22;10183;47.808;9.476;2022-12-05T17:18:46;1.60;99.90
20045;DHT22;10183;47.808;9.476;2022-12-05T17:21:18;1.60;99.90
20045;DHT22;10183;47.808;9.476;2022-12-05T17:23:45;1.70;99.90
20045;DHT22;10183;47.808;9.476;2022-12-05T17:26:13;1.70;99.90
20045;DHT22;10183;47.808;9.476;2022-12-05T17:28:40;1.70;99.90
20045;DHT22;10183;47.808;9.476;2022-12-05T17:31:09;1.70;99.90
20045;DHT22;10183;47.808;9.476;2022-12-05T17:33:37;1.70;99.90
20045;DHT22;10183;47.808;9.476;2022-12-05T17:36:03;1.70;99.90
20045;DHT22;10183;47.808;9.476;2022-12-05T17:38:30;1.70;99.90
20045;DHT22;10183;47.808;9.476;2022-12-05T17:40:56;1.70;99.90
20045;DHT22;10183;47.808;9.476;2022-12-05T17:43:22;1.70;99.90
20045;DHT22;10183;47.808;9.476;2022-12-05T17:45:48;1.70;99.90
20045;DHT22;10183;47.808;9.476;2022-12-05T17:48:14;1.80;99.90
20045;DHT22;10183;47.808;9.476;2022-12-05T17:50:43;1.80;99.90
20045;DHT22;10183;47.808;9.476;2022-12-05T17:53:12;1.80;99.90
20045;DHT22;10183;47.808;9.476;2022-12-05T17:55:41;1.80;99.90
20045;DHT22;10183;47.808;9.476;2022-12-05T17:58:08;1.90;99.90
20045;DHT22;10183;47.808;9.476;2022-12-05T18:00:34;1.90;99.90
20045;DHT22;10183;47.808;9.476;2022-12-05T18:03:00;1.90;99.90
20045;DHT22;10183;47.808;9.476;2022-12-05T18:05:27;1.90;99.90
20045;DHT22;10183;47.808;9.476;2022-12-05T18:07:53;2.00;99.90
20045;DHT22;10183;47.808;9.476;2022-12-05T18:10:21;2.00;99.90
20045;DHT22;10183;47.808;9.476;2022-12-05T18:12:49;2.00;99.90
20045;DHT22;10183;47.808;9.476;2022-12-05T18:15:16;1.90;99.90
20045;DHT22;10183;47.808;9.476;2022-12-05T18:17:42;1.70;99.90
20045;DHT22;10183;47.808;9.476;2022-12-05T18:20:11;1.80;99.90
20045;DHT22;10183;47.808;9.476;2022-12-05T18:22:37;1.80;99.90
20045;DHT22;10183;47.808;9.476;2022-12-05T18:25:04;1.70;99.90
20045;DHT22;10183;47.808;9.476;2022-12-05T18:27:33;1.70;99.90
20045;DHT22;10183;47.808;9.476;2022-12-05T18:29:59;1.70;99.90
20045;DHT22;10183;47.808;9.476;2022-12-05T18:32:26;1.80;99.90
20045;DHT22;10183;47.808;9.476;2022-12-05T18:34:52;1.80;99.90
20045;DHT22;10183;47.808;9.476;2022-12-05T18:37:18;1.80;99.90
20045;DHT22;10183;47.808;9.476;2022-12-05T18:39:45;1.80;99.90
20045;DHT22;10183;47.808;9.476;2022-12-05T18:42:11;1.90;99.90
20045;DHT22;10183;47.808;9.476;2022-12-05T18:44:37;2.00;99.90
20045;DHT22;10183;47.808;9.476;2022-12-05T18:47:03;2.10;99.90
20045;DHT22;10183;47.808;9.476;2022-12-05T18:49:30;2.10;99.90
20045;DHT22;10183;47.808;9.476;2022-12-05T18:51:56;2.10;99.90
20045;DHT22;10183;47.808;9.476;2022-12-05T18:54:22;2.10;99.90
20045;DHT22;10183;47.808;9.476;2022-12-05T18:56:48;2.10;99.90
20045;DHT22;10183;47.808;9.476;2022-12-05T18:59:19;2.10;99.90
20045;DHT22;10183;47.808;9.476;2022-12-05T19:01:47;2.10;99.90